Time;durP1;ratioP1;P1;durP2;ratioP2;P2;SDS_P1;SDS_P2;PMS_P1;PMS_P2;Temp;Humidity;BMP_temperature;BMP_pressure;BME280_temperature;BME280_humidity;BME280_pressure;Samples;Min_cycle;Max_cycle;Signal;HPM_P1;HPM_P2
2023/05/30 00:02:12;;;;;;;22.40;21.40;;;22.50;44.60;;;;;;5022889;28;20477;-54
2023/05/30 00:04:39;;;;;;;23.00;21.80;;;22.50;44.60;;;;;;5031829;28;20536;-53
2023/05/30 00:07:06;;;;;;;22.70;21.57;;;22.50;44.70;;;;;;5034437;28;20495;-54
2023/05/30 00:09:33;;;;;;;24.10;22.90;;;22.50;44.60;;;;;;5035052;28;20496;-53
2023/05/30 00:12:00;;;;;;;22.53;21.43;;;22.50;44.60;;;;;;5028866;28;20469;-54
2023/05/30 00:14:27;;;;;;;22.47;21.30;;;22.40;44.60;;;;;;5033039;28;20868;-53
2023/05/30 00:16:56;;;;;;;22.87;21.67;;;22.50;44.70;;;;;;5016971;28;20446;-53
2023/05/30 00:19:24;;;;;;;22.80;21.40;;;22.50;44.70;;;;;;5014906;28;20505;-53
2023/05/30 00:21:52;;;;;;;21.83;20.83;;;22.40;44.60;;;;;;5024004;28;20887;-57
2023/05/30 00:24:20;;;;;;;21.73;20.83;;;22.40;44.60;;;;;;5019172;28;20529;-55
2023/05/30 00:26:47;;;;;;;22.53;21.33;;;22.40;44.70;;;;;;5015839;28;20481;-55
2023/05/30 00:29:14;;;;;;;21.87;20.77;;;22.40;44.80;;;;;;5014879;28;20557;-53
2023/05/30 00:31:41;;;;;;;22.20;21.20;;;22.40;44.80;;;;;;5022846;28;20803;-56
2023/05/30 00:34:07;;;;;;;21.93;20.90;;;22.40;44.80;;;;;;5022898;28;20485;-53
2023/05/30 00:36:36;;;;;;;21.17;20.27;;;22.40;44.80;;;;;;5029447;28;20441;-53
2023/05/30 00:39:03;;;;;;;22.00;21.10;;;22.40;44.80;;;;;;5015288;28;20568;-53
2023/05/30 00:41:30;;;;;;;21.70;20.70;;;22.40;44.90;;;;;;5022398;28;20931;-53
2023/05/30 00:43:57;;;;;;;21.60;20.57;;;22.40;44.90;;;;;;5034633;28;20884;-52
2023/05/30 00:46:29;;;;;;;24.07;22.77;;;22.40;45.00;;;;;;5019321;28;20875;-53
2023/05/30 00:48:56;;;;;;;22.77;21.60;;;22.40;45.00;;;;;;5006800;28;20488;-53
2023/05/30 00:51:26;;;;;;;23.07;21.87;;;22.40;45.10;;;;;;5027114;28;20466;-56
2023/05/30 00:53:55;;;;;;;22.90;21.80;;;22.30;45.10;;;;;;5034320;28;20829;-52
2023/05/30 00:56:23;;;;;;;22.97;21.80;;;22.30;45.20;;;;;;5034614;28;20945;-53
2023/05/30 00:58:50;;;;;;;22.43;21.33;;;22.30;45.30;;;;;;5029763;28;20457;-53
2023/05/30 01:01:18;;;;;;;22.60;21.40;;;22.30;45.30;;;;;;5021575;28;20521;-52
2023/05/30 01:03:47;;;;;;;22.70;21.67;;;22.30;45.30;;;;;;5024602;28;20452;-53
2023/05/30 01:06:14;;;;;;;21.67;20.67;;;22.30;45.30;;;;;;5033941;28;20539;-55
2023/05/30 01:08:41;;;;;;;22.30;21.40;;;22.30;45.30;;;;;;5017711;28;20564;-53
2023/05/30 01:11:23;;;;;;;22.60;21.60;;;22.30;45.30;;;;;;5033930;28;20531;-53
2023/05/30 01:13:57;;;;;;;22.70;21.60;;;22.30;45.40;;;;;;5032918;28;20507;-52
2023/05/30 01:16:26;;;;;;;22.00;21.03;;;22.30;46.00;;;;;;5033770;28;20519;-56
2023/05/30 01:19:01;;;;;;;25.10;23.80;;;22.30;45.40;;;;;;5017396;28;20560;-54
2023/05/30 01:21:33;;;;;;;21.80;20.80;;;22.30;45.40;;;;;;5026131;28;20450;-53
2023/05/30 01:24:15;;;;;;;22.73;21.73;;;22.30;45.40;;;;;;5025073;28;20540;-55
2023/05/30 01:27:03;;;;;;;21.97;21.07;;;22.20;45.40;;;;;;5031796;28;20445;-53
2023/05/30 01:29:32;;;;;;;22.47;21.47;;;22.20;45.40;;;;;;5020049;28;21021;-52
2023/05/30 01:32:01;;;;;;;23.33;22.10;;;22.20;45.50;;;;;;5029821;28;20544;-54
2023/05/30 01:34:28;;;;;;;23.70;22.50;;;22.20;45.40;;;;;;5018370;28;20449;-53
2023/05/30 01:36:55;;;;;;;21.80;20.90;;;22.20;45.50;;;;;;5032072;28;20874;-54
2023/05/30 01:39:22;;;;;;;22.50;21.30;;;22.20;45.50;;;;;;5028697;28;20515;-53
2023/05/30 01:41:56;;;;;;;23.60;22.30;;;22.20;45.50;;;;;;5033246;28;20449;-56
2023/05/30 01:44:28;;;;;;;21.47;20.57;;;22.20;45.50;;;;;;5021813;28;20492;-54
2023/05/30 01:47:02;;;;;;;22.53;21.43;;;22.20;45.50;;;;;;5014579;28;20564;-54
2023/05/30 01:49:35;;;;;;;22.73;21.53;;;22.20;45.50;;;;;;5015534;28;20469;-56
2023/05/30 01:52:05;;;;;;;22.20;21.10;;;22.20;45.60;;;;;;5013736;28;20967;-55
2023/05/30 01:54:34;;;;;;;21.43;20.53;;;22.20;45.60;;;;;;5013143;28;20532;-55
2023/05/30 01:57:07;;;;;;;22.63;21.33;;;22.10;45.60;;;;;;5032065;28;20488;-57
2023/05/30 01:59:36;;;;;;;22.47;21.47;;;22.20;45.70;;;;;;5024664;28;20474;-54
2023/05/30 02:02:06;;;;;;;24.73;23.50;;;22.20;45.70;;;;;;5026524;28;20536;-54
2023/05/30 02:04:33;;;;;;;23.43;22.13;;;22.10;45.70;;;;;;5021537;28;20935;-54
2023/05/30 02:07:00;;;;;;;22.73;21.63;;;22.10;45.70;;;;;;5020169;28;20483;-55
2023/05/30 02:09:27;;;;;;;22.73;21.53;;;22.10;45.70;;;;;;5031851;28;20571;-55
2023/05/30 02:11:54;;;;;;;22.70;21.70;;;22.10;45.70;;;;;;5031033;28;20532;-54
2023/05/30 02:14:22;;;;;;;22.77;21.77;;;22.10;45.70;;;;;;5032561;28;20484;-54
2023/05/30 02:16:49;;;;;;;23.13;22.00;;;22.10;45.70;;;;;;5022945;28;20449;-55
2023/05/30 02:19:18;;;;;;;22.70;21.60;;;22.10;45.80;;;;;;5012833;28;20466;-56
2023/05/30 02:21:45;;;;;;;22.73;21.73;;;22.10;45.80;;;;;;5012587;28;20454;-53
2023/05/30 02:24:12;;;;;;;22.20;21.13;;;22.10;45.80;;;;;;5026955;28;20477;-54
2023/05/30 02:26:39;;;;;;;25.10;23.93;;;22.10;45.80;;;;;;5030744;28;20449;-53
2023/05/30 02:29:06;;;;;;;22.40;21.30;;;22.10;45.80;;;;;;5018305;28;20572;-53
2023/05/30 02:31:33;;;;;;;22.07;21.10;;;22.10;45.90;;;;;;5012627;28;20532;-53
2023/05/30 02:34:00;;;;;;;22.47;21.03;;;22.10;45.90;;;;;;5013382;28;20485;-55
2023/05/30 02:36:28;;;;;;;22.57;21.27;;;22.00;45.90;;;;;;5021992;28;20485;-54
2023/05/30 02:38:55;;;;;;;22.70;21.60;;;22.00;45.90;;;;;;5025477;28;20898;-52
2023/05/30 02:41:22;;;;;;;22.97;21.77;;;22.00;45.90;;;;;;5032151;28;20978;-55
2023/05/30 02:43:49;;;;;;;22.70;21.47;;;22.00;45.90;;;;;;5017485;28;20454;-52
2023/05/30 02:46:16;;;;;;;23.40;22.10;;;22.00;45.90;;;;;;5022014;28;20517;-54
2023/05/30 02:48:43;;;;;;;23.40;22.30;;;22.00;46.00;;;;;;5025345;28;20513;-54
2023/05/30 02:51:10;;;;;;;22.63;21.73;;;22.00;46.00;;;;;;5015290;28;20533;-52
2023/05/30 02:53:38;;;;;;;22.60;21.47;;;22.00;46.00;;;;;;5027210;28;20454;-53
2023/05/30 02:56:05;;;;;;;22.43;21.43;;;22.00;46.00;;;;;;5013246;28;20529;-53
2023/05/30 02:58:32;;;;;;;22.60;21.50;;;22.00;46.10;;;;;;5021546;28;20504;-56
2023/05/30 03:00:59;;;;;;;22.73;21.57;;;22.00;46.10;;;;;;5026451;28;20528;-52
2023/05/30 03:03:26;;;;;;;23.60;22.40;;;22.00;46.20;;;;;;5011839;28;20478;-52
2023/05/30 03:05:53;;;;;;;23.77;22.57;;;22.00;46.10;;;;;;5016083;28;20473;-57
2023/05/30 03:08:20;;;;;;;24.17;22.77;;;22.00;46.20;;;;;;5031519;28;20584;-54
2023/05/30 03:10:48;;;;;;;22.33;21.23;;;22.00;46.20;;;;;;5031853;28;20441;-54
2023/05/30 03:13:15;;;;;;;23.80;22.60;;;21.90;46.20;;;;;;5031650;28;20892;-55
2023/05/30 03:15:42;;;;;;;23.40;22.40;;;22.00;46.30;;;;;;5031359;28;20537;-54
2023/05/30 03:18:09;;;;;;;22.60;21.50;;;21.90;46.30;;;;;;5031301;28;20553;-57
2023/05/30 03:20:37;;;;;;;24.50;23.20;;;22.00;46.40;;;;;;5029871;28;20499;-54
2023/05/30 03:23:04;;;;;;;25.73;24.20;;;21.90;46.40;;;;;;5023862;28;20446;-54
2023/05/30 03:25:30;;;;;;;23.90;22.60;;;21.90;46.40;;;;;;5012250;28;21015;-55
2023/05/30 03:27:59;;;;;;;23.30;22.30;;;21.90;46.40;;;;;;5026346;28;20639;-54
2023/05/30 03:30:27;;;;;;;22.33;21.43;;;21.90;46.40;;;;;;5031347;28;20818;-56
2023/05/30 03:32:54;;;;;;;24.17;22.93;;;21.90;46.40;;;;;;5018544;28;20813;-53
2023/05/30 03:35:21;;;;;;;22.77;21.67;;;21.90;46.40;;;;;;5011663;28;20461;-53
2023/05/30 03:37:48;;;;;;;24.20;22.90;;;21.90;46.40;;;;;;5015900;28;20568;-54
2023/05/30 03:40:15;;;;;;;22.70;21.60;;;21.90;46.40;;;;;;5011963;28;20529;-55
2023/05/30 03:42:42;;;;;;;23.57;22.40;;;21.90;46.40;;;;;;5026049;28;20549;-53
2023/05/30 03:45:11;;;;;;;23.13;21.90;;;21.90;46.40;;;;;;5031811;28;20476;-52
2023/05/30 03:47:38;;;;;;;23.07;21.77;;;21.90;46.40;;;;;;5024340;28;20541;-53
2023/05/30 03:50:05;;;;;;;25.30;23.60;;;21.90;46.50;;;;;;5013710;28;20489;-52
2023/05/30 03:52:32;;;;;;;23.63;22.43;;;21.90;46.50;;;;;;5026921;28;20535;-52
2023/05/30 03:54:59;;;;;;;24.33;22.73;;;21.80;46.50;;;;;;5012397;28;20486;-52
2023/05/30 03:57:26;;;;;;;23.47;22.43;;;21.90;46.60;;;;;;5022817;28;21009;-52
2023/05/30 03:59:53;;;;;;;25.63;24.03;;;21.90;46.60;;;;;;5031573;28;20476;-52
2023/05/30 04:02:21;;;;;;;24.30;23.00;;;21.80;46.50;;;;;;5026645;28;20916;-52
2023/05/30 04:04:48;;;;;;;24.83;23.53;;;21.80;46.60;;;;;;5031248;28;20719;-52
2023/05/30 04:07:16;;;;;;;24.87;23.57;;;21.80;46.60;;;;;;5018436;28;20500;-52
2023/05/30 04:09:43;;;;;;;25.03;23.90;;;21.80;46.70;;;;;;5011379;28;20967;-52
2023/05/30 04:12:10;;;;;;;26.20;24.80;;;21.90;46.70;;;;;;5025321;28;20888;-52
2023/05/30 04:14:37;;;;;;;24.23;23.13;;;21.80;46.70;;;;;;5031133;28;20453;-52
2023/05/30 04:17:04;;;;;;;23.87;22.77;;;21.80;46.80;;;;;;5020848;28;20545;-52
2023/05/30 04:19:32;;;;;;;24.87;23.77;;;21.80;46.80;;;;;;5025787;28;20526;-55
2023/05/30 04:21:59;;;;;;;25.17;23.97;;;21.80;46.80;;;;;;5025234;28;20909;-53
2023/05/30 04:24:26;;;;;;;25.17;24.07;;;21.80;46.90;;;;;;5031026;28;20523;-54
2023/05/30 04:26:53;;;;;;;25.73;24.30;;;21.80;46.90;;;;;;5020545;28;20528;-53
2023/05/30 04:29:22;;;;;;;25.43;24.03;;;21.80;47.00;;;;;;5011281;28;20573;-54
2023/05/30 04:31:49;;;;;;;25.00;23.70;;;21.80;47.00;;;;;;5015957;28;20492;-56
2023/05/30 04:34:17;;;;;;;24.80;23.60;;;21.80;47.10;;;;;;5029918;28;20556;-57
2023/05/30 04:36:45;;;;;;;25.00;23.70;;;21.80;47.10;;;;;;5030438;28;20939;-52
2023/05/30 04:39:13;;;;;;;26.17;24.67;;;21.80;47.40;;;;;;5034205;28;20552;-53
2023/05/30 04:41:40;;;;;;;26.50;25.00;;;21.80;47.60;;;;;;5025178;28;20528;-54
2023/05/30 04:44:08;;;;;;;27.83;26.33;;;21.80;48.00;;;;;;5014303;28;20943;-51
2023/05/30 04:46:36;;;;;;;27.50;25.80;;;21.80;48.40;;;;;;5014495;28;21033;-51
2023/05/30 04:49:03;;;;;;;25.50;24.10;;;21.80;48.40;;;;;;5014457;28;20513;-51
2023/05/30 04:51:32;;;;;;;26.60;25.10;;;21.80;48.40;;;;;;5014433;28;20484;-51
2023/05/30 04:54:01;;;;;;;26.23;24.63;;;21.80;48.40;;;;;;5014152;28;20943;-53
2023/05/30 04:56:28;;;;;;;25.03;23.73;;;21.80;48.40;;;;;;5014232;28;20927;-53
2023/05/30 04:58:55;;;;;;;33.43;31.70;;;21.80;48.40;;;;;;5014312;28;20540;-54
2023/05/30 05:01:23;;;;;;;33.40;31.10;;;21.80;48.40;;;;;;5014036;28;20477;-57
2023/05/30 05:03:50;;;;;;;33.00;31.33;;;21.80;48.40;;;;;;5013970;28;20817;-54
2023/05/30 05:06:18;;;;;;;26.47;25.07;;;21.80;48.40;;;;;;5014158;28;20452;-52
2023/05/30 05:08:44;;;;;;;25.93;24.63;;;21.80;48.50;;;;;;5013842;28;20580;-52
2023/05/30 05:11:14;;;;;;;26.63;25.00;;;21.80;48.40;;;;;;5014111;28;20528;-55
2023/05/30 05:13:41;;;;;;;25.30;24.10;;;21.80;48.40;;;;;;5013951;28;20458;-56
2023/05/30 05:16:08;;;;;;;25.93;24.73;;;21.80;48.40;;;;;;5013889;28;20548;-55
2023/05/30 05:18:35;;;;;;;26.60;25.30;;;21.80;48.50;;;;;;5013924;28;20996;-55
2023/05/30 05:21:02;;;;;;;26.70;24.97;;;21.80;48.50;;;;;;5013905;28;20541;-54
2023/05/30 05:23:29;;;;;;;27.60;26.13;;;21.80;48.40;;;;;;5013537;28;20480;-57
2023/05/30 05:25:56;;;;;;;25.97;24.57;;;21.80;48.40;;;;;;5013880;28;20442;-53
2023/05/30 05:28:24;;;;;;;26.90;25.50;;;21.80;48.50;;;;;;5013617;28;20482;-55
2023/05/30 05:30:52;;;;;;;26.10;24.80;;;21.80;48.50;;;;;;5013662;28;20540;-56
2023/05/30 05:33:19;;;;;;;26.43;25.13;;;21.80;48.50;;;;;;5013442;28;20458;-58
2023/05/30 05:35:48;;;;;;;26.50;25.20;;;21.80;48.50;;;;;;5013532;28;20485;-53
2023/05/30 05:38:15;;;;;;;26.60;25.20;;;21.80;48.60;;;;;;5013316;28;20480;-54
2023/05/30 05:40:43;;;;;;;26.67;25.20;;;21.80;48.50;;;;;;5013623;28;20967;-56
2023/05/30 05:43:09;;;;;;;28.70;27.20;;;21.80;48.50;;;;;;5013330;28;20529;-54
2023/05/30 05:45:38;;;;;;;24.80;23.60;;;21.80;48.60;;;;;;5013383;28;20534;-54
2023/05/30 05:48:05;;;;;;;26.33;25.00;;;21.80;48.50;;;;;;5013291;28;20552;-54
2023/05/30 05:50:32;;;;;;;26.40;24.90;;;21.80;48.50;;;;;;5013422;28;20473;-52
2023/05/30 05:52:59;;;;;;;26.50;24.90;;;21.80;48.50;;;;;;5013170;28;20549;-53
2023/05/30 05:55:25;;;;;;;26.30;25.10;;;21.80;48.50;;;;;;5013165;28;20477;-55
2023/05/30 05:57:52;;;;;;;27.20;25.90;;;21.80;48.50;;;;;;5013069;28;20501;-52
2023/05/30 06:00:20;;;;;;;26.90;25.40;;;21.80;48.50;;;;;;5013069;28;20468;-57
2023/05/30 06:02:48;;;;;;;26.33;24.93;;;21.80;48.50;;;;;;5012952;28;20493;-52
2023/05/30 06:05:15;;;;;;;27.03;25.60;;;21.80;48.50;;;;;;5012997;28;20474;-52
2023/05/30 06:07:42;;;;;;;26.93;25.63;;;21.80;48.50;;;;;;5012906;28;20560;-55
2023/05/30 06:10:10;;;;;;;26.37;24.87;;;21.80;48.50;;;;;;5012944;28;20573;-56
2023/05/30 06:12:37;;;;;;;27.57;26.07;;;21.80;48.50;;;;;;5012946;28;20525;-54
2023/05/30 06:15:04;;;;;;;28.10;26.60;;;21.80;48.60;;;;;;5012807;28;20517;-55
2023/05/30 06:17:31;;;;;;;26.13;24.93;;;21.80;48.50;;;;;;5012751;28;20482;-55
2023/05/30 06:20:00;;;;;;;26.60;25.40;;;21.80;48.50;;;;;;5012794;28;20447;-54
2023/05/30 06:22:26;;;;;;;28.13;26.63;;;21.80;48.60;;;;;;5012380;28;20525;-53
2023/05/30 06:24:53;;;;;;;26.73;25.53;;;21.80;48.50;;;;;;5012699;28;20532;-56
2023/05/30 06:27:21;;;;;;;28.67;27.23;;;21.80;48.50;;;;;;5012593;28;20478;-56
2023/05/30 06:29:47;;;;;;;28.70;27.40;;;21.80;48.50;;;;;;5012548;28;20914;-53
2023/05/30 06:32:15;;;;;;;28.40;27.20;;;21.80;48.60;;;;;;5012500;28;20872;-53
2023/05/30 06:34:41;;;;;;;30.23;28.60;;;21.80;48.60;;;;;;5012453;28;20450;-56
2023/05/30 06:37:10;;;;;;;29.00;27.40;;;21.80;48.60;;;;;;5012424;28;20496;-54
2023/05/30 06:39:37;;;;;;;28.30;27.10;;;21.80;48.60;;;;;;5012463;28;20478;-53
2023/05/30 06:42:05;;;;;;;29.23;27.83;;;21.80;48.60;;;;;;5012505;28;20484;-55
2023/05/30 06:44:32;;;;;;;29.40;27.97;;;21.80;48.60;;;;;;5012252;28;20543;-53
2023/05/30 06:46:58;;;;;;;28.00;26.60;;;21.80;48.60;;;;;;5014666;28;20997;-52
2023/05/30 06:49:25;;;;;;;29.17;27.73;;;21.80;48.50;;;;;;5014538;28;20574;-51
2023/05/30 06:51:52;;;;;;;28.60;27.23;;;21.80;48.50;;;;;;5014291;28;20545;-51
2023/05/30 06:54:20;;;;;;;27.80;26.50;;;21.80;48.50;;;;;;5012281;28;20545;-52
2023/05/30 06:56:48;;;;;;;28.63;27.43;;;21.80;48.60;;;;;;5012665;28;20488;-52
2023/05/30 06:59:14;;;;;;;28.67;27.17;;;21.80;48.60;;;;;;5012382;28;20465;-54
2023/05/30 07:01:41;;;;;;;28.67;27.33;;;21.80;48.60;;;;;;5012410;28;20552;-51
2023/05/30 07:04:08;;;;;;;28.23;26.80;;;21.80;48.60;;;;;;5011942;28;20446;-51
2023/05/30 07:06:35;;;;;;;28.30;27.00;;;21.80;48.60;;;;;;5012040;28;20489;-55
2023/05/30 07:09:02;;;;;;;29.30;27.80;;;21.80;48.60;;;;;;5011708;28;20926;-56
2023/05/30 07:11:31;;;;;;;28.93;27.63;;;21.80;48.60;;;;;;5012028;28;20454;-56
2023/05/30 07:13:57;;;;;;;29.97;28.57;;;21.80;48.60;;;;;;5011800;28;20876;-55
2023/05/30 07:16:24;;;;;;;27.80;26.40;;;21.80;48.60;;;;;;5011817;28;20961;-52
2023/05/30 07:18:51;;;;;;;28.83;27.33;;;21.80;48.60;;;;;;5011741;28;20466;-56
2023/05/30 07:21:18;;;;;;;28.90;27.17;;;21.80;48.60;;;;;;5011863;28;20563;-51
2023/05/30 07:23:45;;;;;;;28.40;26.90;;;21.80;48.60;;;;;;5011558;28;20491;-53
2023/05/30 07:26:12;;;;;;;27.63;26.20;;;21.70;48.60;;;;;;5011802;28;20528;-55
2023/05/30 07:28:40;;;;;;;29.17;27.93;;;21.80;48.70;;;;;;5011769;28;20540;-53
2023/05/30 07:31:07;;;;;;;27.40;26.30;;;21.80;48.70;;;;;;5011819;28;20477;-55
2023/05/30 07:33:34;;;;;;;28.20;27.00;;;21.80;48.70;;;;;;5011610;28;20469;-55
2023/05/30 07:36:01;;;;;;;28.73;27.43;;;21.80;48.70;;;;;;5011831;28;20478;-58
2023/05/30 07:38:28;;;;;;;29.70;28.20;;;21.80;48.70;;;;;;5011486;28;21058;-59
2023/05/30 07:40:55;;;;;;;30.07;28.57;;;21.80;48.70;;;;;;5011876;28;20533;-53
2023/05/30 07:43:21;;;;;;;27.57;26.37;;;21.80;48.70;;;;;;5011517;28;20540;-56
2023/05/30 07:45:50;;;;;;;26.97;25.87;;;21.80;48.70;;;;;;5011719;28;20481;-53
2023/05/30 07:48:16;;;;;;;28.53;26.93;;;21.80;48.70;;;;;;5011727;28;20549;-52
2023/05/30 07:50:43;;;;;;;28.00;26.70;;;21.80;48.70;;;;;;5011401;28;20540;-55
2023/05/30 07:53:10;;;;;;;28.33;26.93;;;21.80;48.70;;;;;;5011514;28;20529;-55
2023/05/30 07:55:37;;;;;;;28.40;27.00;;;21.70;48.70;;;;;;5011577;28;20829;-55
2023/05/30 07:58:04;;;;;;;28.00;26.70;;;21.80;48.70;;;;;;5011519;28;20501;-55
2023/05/30 08:00:31;;;;;;;27.37;26.07;;;21.80;49.10;;;;;;5011430;28;20441;-53
2023/05/30 08:02:59;;;;;;;26.50;25.30;;;21.80;48.80;;;;;;5011553;28;20537;-53
2023/05/30 08:05:26;;;;;;;27.13;25.83;;;21.80;48.80;;;;;;5011408;28;20446;-55
2023/05/30 08:07:53;;;;;;;27.10;25.70;;;21.80;48.80;;;;;;5014298;28;20915;-54
2023/05/30 08:10:20;;;;;;;27.93;26.63;;;21.80;48.80;;;;;;5015505;28;20520;-54
2023/05/30 08:12:47;;;;;;;28.53;27.00;;;21.80;48.80;;;;;;5015271;28;20540;-57
2023/05/30 08:15:14;;;;;;;27.17;25.90;;;21.80;48.80;;;;;;5015135;28;20538;-53
2023/05/30 08:17:41;;;;;;;26.90;25.50;;;21.70;48.80;;;;;;5015034;28;20536;-56
2023/05/30 08:20:12;;;;;;;29.50;28.10;;;21.80;48.80;;;;;;5015128;28;20524;-52
2023/05/30 08:22:39;;;;;;;27.07;25.87;;;21.80;48.80;;;;;;5015199;28;20441;-56
2023/05/30 08:25:07;;;;;;;27.60;26.30;;;21.80;48.90;;;;;;5014837;28;20941;-57
2023/05/30 08:27:37;;;;;;;28.80;27.60;;;21.80;48.80;;;;;;5014991;28;20449;-52
2023/05/30 08:30:05;;;;;;;27.50;26.13;;;21.80;48.80;;;;;;5014786;28;20902;-56
2023/05/30 08:32:32;;;;;;;27.37;26.17;;;21.80;48.80;;;;;;5014743;28;20481;-53
2023/05/30 08:34:59;;;;;;;28.47;27.27;;;21.80;48.90;;;;;;5014693;28;20457;-59
2023/05/30 08:37:27;;;;;;;27.20;26.00;;;21.70;48.80;;;;;;5014521;28;20529;-57
2023/05/30 08:39:54;;;;;;;28.20;26.80;;;21.70;48.80;;;;;;5014768;28;20847;-56
2023/05/30 08:42:21;;;;;;;27.30;26.00;;;21.80;48.90;;;;;;5014533;28;21006;-53
2023/05/30 08:44:48;;;;;;;27.37;26.07;;;21.70;48.80;;;;;;5014485;28;20481;-53
2023/05/30 08:47:17;;;;;;;26.53;25.43;;;21.80;49.40;;;;;;5014657;28;20481;-54
2023/05/30 08:49:46;;;;;;;25.77;24.67;;;21.80;48.90;;;;;;5014236;28;20574;-55
2023/05/30 08:52:14;;;;;;;27.60;26.30;;;21.80;48.90;;;;;;5014450;28;20995;-51
2023/05/30 08:54:55;;;;;;;28.17;26.97;;;21.70;48.80;;;;;;5014445;28;20537;-53
2023/05/30 08:57:27;;;;;;;26.97;25.70;;;21.80;48.90;;;;;;5014453;28;20472;-58
2023/05/30 08:59:55;;;;;;;27.57;26.17;;;21.80;48.90;;;;;;5014323;28;20947;-56
2023/05/30 09:02:22;;;;;;;28.03;26.83;;;21.70;48.80;;;;;;5014005;28;20529;-57
2023/05/30 09:04:52;;;;;;;29.20;27.70;;;21.70;48.80;;;;;;5014064;28;20485;-53
2023/05/30 09:07:21;;;;;;;28.40;27.10;;;21.70;48.90;;;;;;5014234;28;20854;-55
2023/05/30 09:09:51;;;;;;;28.40;27.20;;;21.70;48.90;;;;;;5014097;28;20573;-55
2023/05/30 09:12:18;;;;;;;27.10;26.00;;;21.70;48.90;;;;;;5014009;28;20791;-56
2023/05/30 09:14:45;;;;;;;27.83;26.53;;;21.70;48.90;;;;;;5014071;28;21035;-55
2023/05/30 09:17:12;;;;;;;27.90;26.70;;;21.70;48.90;;;;;;5013420;28;20446;-57
2023/05/30 09:19:40;;;;;;;28.07;26.83;;;21.70;48.90;;;;;;5013699;28;20493;-57
2023/05/30 09:22:07;;;;;;;26.30;25.07;;;21.80;49.00;;;;;;5013898;28;20446;-54
2023/05/30 09:25:00;;;;;;;27.13;25.97;;;21.80;49.00;;;;;;5013886;28;20458;-56
2023/05/30 09:27:28;;;;;;;27.30;26.10;;;21.80;49.00;;;;;;5013800;28;20477;-57
2023/05/30 09:29:55;;;;;;;27.23;26.03;;;21.80;49.00;;;;;;5013825;28;20569;-57
2023/05/30 09:32:28;;;;;;;27.37;25.97;;;21.80;49.00;;;;;;5013379;28;20969;-57
2023/05/30 09:34:57;;;;;;;26.70;25.43;;;21.80;49.00;;;;;;5013649;28;20485;-54
2023/05/30 09:37:24;;;;;;;28.10;26.90;;;21.80;49.00;;;;;;5013458;28;20947;-54
2023/05/30 09:40:09;;;;;;;28.33;26.93;;;21.80;49.00;;;;;;5014060;28;20939;-54
2023/05/30 09:42:40;;;;;;;26.70;25.50;;;21.80;49.00;;;;;;5015102;28;20486;-53
2023/05/30 09:45:09;;;;;;;28.60;27.20;;;21.80;49.00;;;;;;5015141;28;20542;-54
2023/05/30 09:47:39;;;;;;;27.17;25.97;;;21.80;49.10;;;;;;5014443;28;20456;-53
2023/05/30 09:50:07;;;;;;;27.60;26.40;;;21.80;49.00;;;;;;5014067;28;20577;-53
2023/05/30 09:52:34;;;;;;;27.23;25.93;;;21.80;49.10;;;;;;5013693;28;20449;-53
2023/05/30 09:55:05;;;;;;;26.97;25.77;;;21.80;49.00;;;;;;5013332;28;20457;-54
2023/05/30 09:57:35;;;;;;;27.20;26.00;;;21.80;49.00;;;;;;5013231;28;20520;-53
2023/05/30 10:00:09;;;;;;;26.93;25.60;;;21.80;49.00;;;;;;5013300;28;20541;-56
2023/05/30 10:02:36;;;;;;;27.77;26.27;;;21.80;49.00;;;;;;5012942;28;20457;-54
2023/05/30 10:05:04;;;;;;;27.17;25.97;;;21.80;49.00;;;;;;5013169;28;20489;-58
2023/05/30 10:07:32;;;;;;;26.83;25.53;;;21.80;49.00;;;;;;5013099;28;20446;-55
2023/05/30 10:09:59;;;;;;;27.07;25.87;;;21.80;49.00;;;;;;5012991;28;20488;-56
2023/05/30 10:12:27;;;;;;;27.97;26.77;;;21.80;49.00;;;;;;5012807;28;20952;-57
2023/05/30 10:14:55;;;;;;;27.00;25.80;;;21.80;49.10;;;;;;5012980;28;20537;-55
2023/05/30 10:17:25;;;;;;;26.90;25.70;;;21.80;49.00;;;;;;5012747;28;20529;-56
2023/05/30 10:20:00;;;;;;;28.37;27.07;;;21.80;49.00;;;;;;5012862;28;20856;-57
2023/05/30 10:22:30;;;;;;;28.50;26.90;;;21.80;49.00;;;;;;5012613;28;20485;-53
2023/05/30 10:25:00;;;;;;;27.80;26.40;;;21.80;49.00;;;;;;5012773;28;20453;-55
2023/05/30 10:27:31;;;;;;;28.37;27.07;;;21.80;49.00;;;;;;5012701;28;20445;-53
2023/05/30 10:30:05;;;;;;;27.37;26.03;;;21.80;49.50;;;;;;5011916;28;20560;-58
2023/05/30 10:32:35;;;;;;;26.40;25.00;;;21.80;49.00;;;;;;5012532;28;20692;-56
2023/05/30 10:35:08;;;;;;;27.23;26.03;;;21.80;49.00;;;;;;5012422;28;21149;-53
2023/05/30 10:37:36;;;;;;;26.63;25.43;;;21.80;49.00;;;;;;5012395;28;20529;-56
2023/05/30 10:40:18;;;;;;;26.03;24.63;;;21.80;49.00;;;;;;5012455;28;20928;-54
2023/05/30 10:42:53;;;;;;;26.13;24.83;;;21.80;48.90;;;;;;5012314;28;20536;-56
2023/05/30 10:45:31;;;;;;;27.50;26.30;;;21.80;48.90;;;;;;5012328;28;20533;-57
2023/05/30 10:48:06;;;;;;;26.53;25.03;;;21.80;48.90;;;;;;5012345;28;20552;-53
2023/05/30 10:50:38;;;;;;;26.77;25.63;;;21.80;48.90;;;;;;5012123;28;20852;-57
2023/05/30 10:53:14;;;;;;;26.20;25.10;;;21.80;48.90;;;;;;5011999;28;20984;-56
2023/05/30 10:55:42;;;;;;;27.00;25.70;;;21.80;48.90;;;;;;5012185;28;20863;-55
2023/05/30 10:58:39;;;;;;;25.97;24.77;;;21.80;48.90;;;;;;5011966;28;20466;-56
2023/05/30 11:01:26;;;;;;;26.50;25.33;;;21.80;48.90;;;;;;5011097;28;20549;-55
2023/05/30 11:04:01;;;;;;;27.60;26.40;;;21.80;48.80;;;;;;5011838;28;20450;-58
2023/05/30 11:06:31;;;;;;;27.13;25.93;;;21.80;48.90;;;;;;5012100;28;20446;-58
2023/05/30 11:09:05;;;;;;;25.33;24.20;;;21.80;48.90;;;;;;5012089;28;20462;-54
2023/05/30 11:11:39;;;;;;;26.80;25.70;;;21.80;48.90;;;;;;5011900;28;20517;-56
2023/05/30 11:14:07;;;;;;;26.63;25.30;;;21.80;48.90;;;;;;5011833;28;20892;-56
2023/05/30 11:16:48;;;;;;;26.67;25.47;;;21.80;48.80;;;;;;5011920;28;20527;-55
2023/05/30 11:19:15;;;;;;;27.57;26.27;;;21.80;48.80;;;;;;5011871;28;20500;-54
2023/05/30 11:22:05;;;;;;;28.40;27.20;;;21.80;48.80;;;;;;5011875;28;20868;-55
2023/05/30 11:24:32;;;;;;;26.87;25.77;;;21.80;48.80;;;;;;5010033;28;20974;-58
2023/05/30 11:27:01;;;;;;;28.13;26.77;;;21.80;48.70;;;;;;5011753;28;20537;-55
2023/05/30 11:29:44;;;;;;;26.40;25.20;;;21.80;48.80;;;;;;5011638;28;20555;-54
2023/05/30 11:32:12;;;;;;;25.07;23.97;;;21.80;48.70;;;;;;5011864;28;20434;-58
2023/05/30 11:34:40;;;;;;;25.53;24.43;;;21.80;48.70;;;;;;5011876;28;20485;-58
2023/05/30 11:37:08;;;;;;;27.37;26.20;;;21.80;48.70;;;;;;5011770;28;20493;-58
2023/05/30 11:39:36;;;;;;;26.90;25.67;;;21.90;48.80;;;;;;5011533;28;20509;-55
2023/05/30 11:42:03;;;;;;;27.63;26.53;;;21.80;48.60;;;;;;5014858;28;20979;-56
2023/05/30 11:44:31;;;;;;;26.33;25.23;;;21.80;48.60;;;;;;5015365;28;20962;-55
2023/05/30 11:46:59;;;;;;;27.20;26.10;;;21.80;48.60;;;;;;5015762;28;20450;-55
2023/05/30 11:49:27;;;;;;;27.03;25.83;;;21.90;48.70;;;;;;5015695;28;20539;-58
2023/05/30 11:51:55;;;;;;;27.10;25.90;;;21.90;48.70;;;;;;5015519;28;21023;-57
2023/05/30 11:54:22;;;;;;;27.57;26.37;;;21.90;48.60;;;;;;5015687;28;20537;-55
2023/05/30 11:56:50;;;;;;;29.00;27.60;;;21.90;49.10;;;;;;5015592;28;20544;-55
2023/05/30 11:59:19;;;;;;;27.00;25.70;;;21.90;48.60;;;;;;5015520;28;20560;-54
2023/05/30 12:01:54;;;;;;;27.10;25.90;;;21.90;48.60;;;;;;5015437;28;20443;-54
2023/05/30 12:04:25;;;;;;;26.10;25.00;;;21.90;48.60;;;;;;5015297;28;20528;-54
2023/05/30 12:06:57;;;;;;;26.30;25.10;;;21.90;48.60;;;;;;5015448;28;20438;-54
2023/05/30 12:09:24;;;;;;;25.90;24.70;;;21.90;48.60;;;;;;5015483;28;20550;-54
2023/05/30 12:11:58;;;;;;;26.80;25.60;;;21.90;48.60;;;;;;5015250;28;20514;-58
2023/05/30 12:14:37;;;;;;;26.57;25.47;;;21.90;48.50;;;;;;5014994;28;20446;-54
2023/05/30 12:17:12;;;;;;;26.83;25.63;;;21.90;48.60;;;;;;5015165;28;20533;-55
2023/05/30 12:19:42;;;;;;;27.10;26.00;;;21.90;48.50;;;;;;5015054;28;20548;-55
2023/05/30 12:22:11;;;;;;;27.33;26.13;;;21.90;48.50;;;;;;5015128;28;20449;-57
2023/05/30 12:24:38;;;;;;;26.40;25.27;;;21.90;48.50;;;;;;5015070;28;20453;-53
2023/05/30 12:27:06;;;;;;;27.27;25.90;;;21.90;48.50;;;;;;5015061;28;21031;-56
2023/05/30 12:29:34;;;;;;;26.93;25.70;;;21.90;48.50;;;;;;5014870;28;20469;-55
2023/05/30 12:32:01;;;;;;;27.03;25.83;;;21.90;48.40;;;;;;5014959;28;20915;-53
2023/05/30 12:34:39;;;;;;;27.37;26.13;;;22.00;48.40;;;;;;5014931;28;20477;-54
2023/05/30 12:37:08;;;;;;;25.80;24.70;;;22.00;48.40;;;;;;5015045;28;20533;-54